Time;durP1;ratioP1;P1;durP2;ratioP2;P2;SDS_P1;SDS_P2;PMS_P1;PMS_P2;Temp;Humidity;BMP_temperature;BMP_pressure;BME280_temperature;BME280_humidity;BME280_pressure;Samples;Min_cycle;Max_cycle;Signal;HPM_P1;HPM_P2
2022/06/18 00:00:55;;;;;;;3.17;2.00;;;17.00;76.40;;;;;;5013129;28;20034;-77
2022/06/18 00:03:21;;;;;;;0.95;0.95;;;16.90;76.50;;;;;;5015830;28;20096;-77
2022/06/18 00:05:50;;;;;;;1.23;0.90;;;16.90;76.90;;;;;;5022345;28;20498;-77
2022/06/18 00:08:23;;;;;;;1.30;1.20;;;16.90;76.70;;;;;;5021323;28;20044;-77
2022/06/18 00:13:39;;;;;;;3.13;1.50;;;16.70;77.20;;;;;;5015172;28;20057;-77
2022/06/18 00:13:48;;;;;;;2.13;1.20;;;16.60;77.80;;;;;;5002211;28;20486;-77
2022/06/18 00:16:21;;;;;;;1.30;1.20;;;16.60;78.50;;;;;;5010841;28;20037;-78
2022/06/18 00:18:47;;;;;;;1.55;1.00;;;16.60;78.50;;;;;;5014071;28;20042;-77
2022/06/18 00:21:21;;;;;;;1.00;1.00;;;16.60;77.80;;;;;;5010996;28;20031;-77
2022/06/18 00:23:46;;;;;;;1.52;0.95;;;16.50;77.50;;;;;;5010873;28;20044;-77
2022/06/18 00:26:12;;;;;;;0.73;0.73;;;16.50;77.70;;;;;;5015591;28;20108;-77
2022/06/18 00:28:39;;;;;;;1.02;0.93;;;16.50;77.70;;;;;;5008744;28;20038;-78
2022/06/18 00:31:05;;;;;;;1.65;1.20;;;16.50;77.80;;;;;;5013002;28;20034;-78
2022/06/18 00:33:30;;;;;;;2.83;1.10;;;16.40;78.00;;;;;;5008345;28;20029;-78
2022/06/18 00:36:04;;;;;;;1.55;1.17;;;16.40;78.40;;;;;;5007482;28;20053;-78
2022/06/18 00:38:34;;;;;;;1.25;1.15;;;16.40;79.00;;;;;;5013171;28;20068;-78
2022/06/18 00:41:01;;;;;;;1.20;1.10;;;16.40;79.20;;;;;;5004746;28;20129;-77
2022/06/18 00:43:34;;;;;;;2.67;1.45;;;16.40;79.00;;;;;;5009084;28;20080;-78
2022/06/18 00:46:22;;;;;;;1.52;1.27;;;16.40;78.80;;;;;;5017910;28;20053;-77
2022/06/18 00:49:09;;;;;;;1.75;1.15;;;16.40;79.20;;;;;;5007842;28;20042;-77
2022/06/18 00:51:45;;;;;;;1.65;1.30;;;16.40;79.50;;;;;;5037529;28;20125;-78
2022/06/18 00:54:27;;;;;;;1.70;1.60;;;16.40;80.00;;;;;;5015343;28;20037;-78
2022/06/18 00:57:23;;;;;;;1.35;1.25;;;16.40;79.60;;;;;;5026420;28;20634;-78
2022/06/18 01:00:14;;;;;;;3.70;1.38;;;16.40;80.10;;;;;;5010423;28;20069;-77
2022/06/18 01:02:45;;;;;;;1.27;1.17;;;16.30;80.00;;;;;;5008939;28;20053;-77
2022/06/18 01:05:26;;;;;;;1.27;1.17;;;16.20;80.10;;;;;;5007347;28;20081;-77
2022/06/18 01:07:56;;;;;;;1.70;1.40;;;16.20;80.30;;;;;;4999004;28;20646;-77
2022/06/18 01:10:30;;;;;;;1.52;1.25;;;16.20;81.20;;;;;;5013700;28;20497;-78
2022/06/18 01:12:58;;;;;;;0.87;0.87;;;16.20;81.30;;;;;;5014008;28;20412;-78
2022/06/18 01:15:25;;;;;;;1.30;1.20;;;16.10;80.80;;;;;;5017435;28;20265;-78
2022/06/18 01:17:53;;;;;;;2.75;1.17;;;16.10;80.90;;;;;;4999294;28;20037;-78
2022/06/18 01:20:23;;;;;;;1.38;1.27;;;16.10;80.70;;;;;;5038247;28;20026;-77
2022/06/18 01:23:06;;;;;;;2.50;1.05;;;16.00;81.80;;;;;;5035064;28;20041;-77
2022/06/18 01:25:32;;;;;;;1.33;1.10;;;16.00;81.50;;;;;;5024559;28;20052;-77
2022/06/18 01:27:59;;;;;;;3.33;1.20;;;16.00;81.60;;;;;;5015423;28;20066;-78
2022/06/18 01:30:38;;;;;;;1.38;1.25;;;15.90;83.00;;;;;;5014177;28;20488;-78
2022/06/18 01:33:08;;;;;;;1.58;1.10;;;15.90;82.10;;;;;;5014981;28;20030;-78
2022/06/18 01:35:40;;;;;;;1.33;1.20;;;15.80;82.00;;;;;;4998426;28;20026;-77
2022/06/18 01:38:13;;;;;;;1.52;1.23;;;15.80;81.80;;;;;;5014032;28;20032;-78
2022/06/18 01:40:51;;;;;;;2.05;1.30;;;15.80;82.00;;;;;;4984985;28;20033;-78
2022/06/18 01:43:19;;;;;;;1.08;1.05;;;15.70;81.60;;;;;;5002747;28;20585;-78
2022/06/18 01:45:54;;;;;;;1.55;1.23;;;15.80;82.10;;;;;;5004980;28;20484;-78
2022/06/18 01:48:25;;;;;;;4.65;1.20;;;15.70;82.40;;;;;;4988501;28;20026;-77
2022/06/18 01:51:00;;;;;;;1.23;1.05;;;15.70;82.50;;;;;;5004010;28;20082;-77
2022/06/18 01:53:30;;;;;;;;;;;15.60;82.30;;;;;;4998104;28;20138;-77
2022/06/18 01:56:13;;;;;;;1.48;1.27;;;15.60;83.00;;;;;;5033982;28;20291;-78
2022/06/18 01:58:50;;;;;;;1.83;1.17;;;15.60;84.00;;;;;;5015141;28;20040;-77
2022/06/18 02:01:30;;;;;;;1.25;1.13;;;15.60;83.30;;;;;;5007799;28;20037;-77
2022/06/18 02:03:59;;;;;;;1.27;1.17;;;15.50;83.40;;;;;;5038152;28;20030;-77
2022/06/18 02:06:25;;;;;;;1.90;1.13;;;15.40;84.80;;;;;;5006447;28;20058;-77
2022/06/18 02:08:52;;;;;;;1.40;1.27;;;15.40;84.40;;;;;;4995616;28;20033;-77
2022/06/18 02:11:20;;;;;;;1.42;1.33;;;15.40;84.90;;;;;;4986861;28;20045;-77
2022/06/18 02:13:51;;;;;;;1.33;1.23;;;15.40;85.00;;;;;;4996622;28;20038;-77
2022/06/18 02:16:21;;;;;;;1.50;1.40;;;15.30;84.90;;;;;;5011987;28;20046;-77
2022/06/18 02:18:48;;;;;;;1.40;1.30;;;15.30;84.50;;;;;;4999244;28;20037;-77
2022/06/18 02:21:20;;;;;;;5.32;1.38;;;15.30;85.30;;;;;;5020407;28;20022;-77
2022/06/18 02:23:46;;;;;;;1.45;1.10;;;15.30;86.00;;;;;;5008025;28;20034;-77
2022/06/18 02:26:13;;;;;;;2.50;1.63;;;15.30;86.20;;;;;;5012190;28;20043;-77
2022/06/18 02:28:41;;;;;;;1.17;1.08;;;15.30;86.10;;;;;;5019686;28;20134;-77
2022/06/18 02:31:16;;;;;;;1.33;1.10;;;15.30;86.30;;;;;;5017103;28;20500;-77
2022/06/18 02:33:48;;;;;;;1.38;1.00;;;15.30;85.50;;;;;;5007772;28;20105;-78
2022/06/18 02:36:24;;;;;;;1.40;1.30;;;15.20;85.90;;;;;;4991673;28;20593;-77
2022/06/18 02:38:57;;;;;;;1.33;1.23;;;15.20;86.60;;;;;;5005114;28;20028;-77
2022/06/18 02:41:24;;;;;;;1.65;1.40;;;15.20;86.60;;;;;;5013463;28;20041;-77
2022/06/18 02:43:51;;;;;;;2.08;1.40;;;15.20;87.00;;;;;;4994674;28;20038;-77
2022/06/18 02:46:18;;;;;;;2.10;1.60;;;15.20;87.20;;;;;;5011667;28;20037;-77
2022/06/18 02:48:44;;;;;;;1.98;1.70;;;15.10;87.40;;;;;;4993736;28;20038;-77
2022/06/18 02:51:12;;;;;;;1.67;1.33;;;15.10;87.20;;;;;;5019014;28;20183;-77
2022/06/18 02:53:41;;;;;;;1.58;1.48;;;15.00;87.70;;;;;;4995613;28;20054;-77
2022/06/18 02:56:09;;;;;;;1.98;1.42;;;15.00;88.30;;;;;;5011083;28;20034;-77
2022/06/18 02:58:38;;;;;;;1.42;1.33;;;15.00;89.10;;;;;;5013636;28;20783;-78
2022/06/18 03:01:08;;;;;;;1.50;1.40;;;15.00;90.00;;;;;;5018276;28;20036;-77
2022/06/18 03:03:42;;;;;;;1.52;1.42;;;15.00;89.40;;;;;;5009141;28;20026;-77
2022/06/18 03:06:09;;;;;;;2.88;1.27;;;15.00;89.50;;;;;;5003862;28;20435;-77
2022/06/18 03:08:36;;;;;;;2.42;1.42;;;14.90;89.60;;;;;;4993144;28;20026;-77
2022/06/18 03:13:59;;;;;;;1.60;1.50;;;14.90;89.30;;;;;;4993918;28;20042;-77
2022/06/18 03:16:26;;;;;;;1.40;1.30;;;14.80;89.60;;;;;;5010166;28;20060;-77
2022/06/18 03:18:55;;;;;;;2.28;1.33;;;14.80;90.30;;;;;;5009390;28;20114;-77
2022/06/18 03:21:33;;;;;;;2.35;1.40;;;14.70;90.20;;;;;;5009540;28;20058;-77
2022/06/18 03:23:58;;;;;;;2.30;1.60;;;14.60;90.10;;;;;;5004204;28;20048;-77
2022/06/18 03:26:25;;;;;;;1.58;1.48;;;14.60;90.00;;;;;;5024403;28;20380;-77
2022/06/18 03:28:54;;;;;;;2.97;1.45;;;14.60;90.20;;;;;;5006448;28;20496;-77
2022/06/18 03:31:20;;;;;;;2.15;1.50;;;14.60;90.40;;;;;;5010377;28;20374;-77
2022/06/18 03:33:50;;;;;;;3.33;1.70;;;14.60;90.60;;;;;;4996532;28;20033;-77
2022/06/18 03:36:18;;;;;;;1.58;1.48;;;14.70;90.50;;;;;;5013861;28;20026;-77
2022/06/18 03:38:46;;;;;;;1.40;1.30;;;14.70;90.30;;;;;;4995471;28;20022;-77
2022/06/18 03:41:13;;;;;;;1.35;1.25;;;14.70;90.10;;;;;;5039588;28;20042;-77
2022/06/18 03:43:39;;;;;;;1.90;1.65;;;14.70;90.00;;;;;;4994791;28;20113;-77
2022/06/18 03:46:08;;;;;;;2.47;1.45;;;14.70;90.10;;;;;;4992856;28;20489;-77
2022/06/18 03:48:57;;;;;;;1.65;1.52;;;14.70;90.40;;;;;;5021140;28;20682;-77
2022/06/18 03:51:27;;;;;;;1.95;1.50;;;14.70;91.00;;;;;;5038416;28;20084;-77
2022/06/18 03:53:54;;;;;;;1.55;1.45;;;14.80;91.00;;;;;;5013753;28;20034;-77
2022/06/18 03:56:23;;;;;;;1.30;1.20;;;14.80;90.70;;;;;;5013893;28;20037;-77
2022/06/18 03:58:50;;;;;;;1.77;1.48;;;14.80;90.90;;;;;;5013760;28;20030;-77
2022/06/18 04:01:20;;;;;;;2.40;1.75;;;14.80;91.00;;;;;;5017583;28;20025;-77
2022/06/18 04:03:47;;;;;;;1.67;1.58;;;14.90;91.30;;;;;;4997491;28;20696;-77
2022/06/18 04:06:21;;;;;;;1.60;1.50;;;14.90;91.20;;;;;;5013289;28;20039;-77
2022/06/18 04:08:47;;;;;;;2.78;1.48;;;15.00;91.20;;;;;;5011335;28;20034;-78
2022/06/18 04:11:19;;;;;;;1.80;1.50;;;15.00;91.10;;;;;;5017470;28;20034;-78
2022/06/18 04:13:45;;;;;;;1.83;1.55;;;15.00;91.50;;;;;;4997956;28;20027;-78
2022/06/18 04:16:32;;;;;;;2.33;1.58;;;15.10;91.90;;;;;;5020111;28;20108;-78
2022/06/18 04:19:04;;;;;;;1.85;1.23;;;15.10;92.40;;;;;;5002584;28;20417;-78
2022/06/18 04:21:30;;;;;;;1.50;1.40;;;15.10;92.40;;;;;;5016073;28;20034;-78
2022/06/18 04:23:56;;;;;;;1.50;1.40;;;15.20;92.40;;;;;;5016713;28;20037;-78
2022/06/18 04:26:23;;;;;;;1.63;1.27;;;15.20;92.30;;;;;;5001619;28;20571;-78
2022/06/18 04:28:49;;;;;;;2.83;1.80;;;15.30;91.70;;;;;;4997404;28;20030;-78
2022/06/18 04:31:17;;;;;;;1.65;1.15;;;15.30;92.10;;;;;;4994053;28;20036;-78
2022/06/18 04:33:45;;;;;;;2.25;1.50;;;15.40;91.30;;;;;;5027349;28;20042;-78
2022/06/18 04:36:36;;;;;;;1.58;1.48;;;15.50;91.70;;;;;;5016528;28;20042;-78
2022/06/18 04:39:08;;;;;;;1.40;1.30;;;15.50;92.20;;;;;;5000386;28;20497;-78
2022/06/18 04:42:03;;;;;;;1.50;1.40;;;15.60;91.90;;;;;;5018706;28;20120;-78
2022/06/18 04:44:29;;;;;;;1.75;1.50;;;15.70;92.10;;;;;;5008948;28;20034;-78
2022/06/18 04:47:03;;;;;;;1.88;1.50;;;15.70;91.10;;;;;;5013912;28;20038;-78
2022/06/18 04:49:30;;;;;;;1.30;1.20;;;15.80;91.60;;;;;;4999560;28;20083;-78
2022/06/18 04:51:56;;;;;;;1.75;1.40;;;15.80;91.60;;;;;;5011376;28;20612;-77
2022/06/18 04:54:40;;;;;;;2.50;1.80;;;15.90;91.50;;;;;;5005131;28;20482;-78
2022/06/18 04:57:06;;;;;;;1.85;1.67;;;16.10;91.30;;;;;;5012779;28;20030;-78
2022/06/18 04:59:32;;;;;;;1.70;1.60;;;16.20;90.30;;;;;;4997002;28;20056;-78
2022/06/18 05:02:06;;;;;;;2.83;1.50;;;16.30;89.40;;;;;;5011671;28;20030;-78
2022/06/18 05:05:04;;;;;;;2.38;1.50;;;16.40;88.70;;;;;;5015901;28;20061;-78
2022/06/18 05:07:39;;;;;;;2.75;1.42;;;16.40;88.40;;;;;;5002031;28;20018;-78
2022/06/18 05:10:23;;;;;;;1.70;1.60;;;16.50;87.50;;;;;;5007571;28;20077;-78
2022/06/18 05:12:54;;;;;;;2.63;1.98;;;16.60;87.50;;;;;;5017177;28;20147;-78
2022/06/18 05:15:40;;;;;;;1.60;1.50;;;16.70;86.80;;;;;;5022004;28;20060;-78
2022/06/18 05:18:06;;;;;;;3.70;2.08;;;16.90;87.10;;;;;;5006983;28;20088;-78
2022/06/18 05:20:32;;;;;;;1.85;1.75;;;17.10;86.40;;;;;;5011250;28;20022;-78
2022/06/18 05:22:59;;;;;;;1.85;1.75;;;17.20;85.90;;;;;;4997720;28;20471;-78
2022/06/18 05:25:25;;;;;;;1.58;1.48;;;17.40;84.40;;;;;;5008075;28;20089;-78
2022/06/18 05:27:52;;;;;;;2.67;1.50;;;17.50;84.50;;;;;;5017086;28;20033;-78
2022/06/18 05:30:27;;;;;;;3.38;1.65;;;17.70;82.80;;;;;;5001202;28;20134;-79
2022/06/18 05:32:57;;;;;;;1.95;1.58;;;17.90;80.30;;;;;;5015122;28;20026;-78
2022/06/18 05:35:25;;;;;;;1.63;1.52;;;18.20;79.40;;;;;;5015785;28;20034;-78
2022/06/18 05:37:51;;;;;;;1.85;1.60;;;18.50;80.30;;;;;;5000581;28;20512;-79
2022/06/18 05:40:17;;;;;;;1.67;1.50;;;18.80;77.40;;;;;;4992150;28;20042;-79
2022/06/18 05:42:43;;;;;;;1.60;1.50;;;19.20;77.00;;;;;;5014040;28;20054;-79
2022/06/18 05:45:10;;;;;;;2.65;1.77;;;19.60;75.30;;;;;;5017552;28;20089;-78
2022/06/18 05:47:36;;;;;;;1.90;1.70;;;19.80;73.20;;;;;;5000953;28;20037;-79
2022/06/18 05:50:06;;;;;;;1.65;1.55;;;20.10;73.50;;;;;;4998387;28;20296;-79
2022/06/18 05:52:34;;;;;;;2.42;1.65;;;20.50;69.70;;;;;;5018481;28;20029;-79
2022/06/18 05:55:10;;;;;;;2.10;1.42;;;20.70;70.00;;;;;;5008555;28;20037;-78
2022/06/18 05:57:58;;;;;;;1.70;1.60;;;21.10;68.40;;;;;;5000225;28;20022;-79
2022/06/18 06:00:29;;;;;;;1.60;1.50;;;21.50;67.60;;;;;;5014818;28;20748;-79
2022/06/18 06:02:59;;;;;;;3.00;1.45;;;21.90;67.40;;;;;;5018465;28;20041;-79
2022/06/18 06:05:25;;;;;;;3.35;1.42;;;22.20;65.50;;;;;;5002992;28;20121;-78
2022/06/18 06:07:51;;;;;;;1.63;1.50;;;22.60;64.90;;;;;;5017907;28;20030;-78
2022/06/18 06:13:05;;;;;;;1.52;1.42;;;23.30;64.10;;;;;;5012811;28;20041;-79
2022/06/18 06:15:31;;;;;;;1.50;1.40;;;23.80;62.60;;;;;;5013361;28;20481;-79
2022/06/18 06:17:57;;;;;;;1.95;1.48;;;24.10;61.40;;;;;;5017478;28;20124;-79
2022/06/18 06:20:30;;;;;;;1.20;1.20;;;24.20;59.30;;;;;;5006063;28;20034;-79
2022/06/18 06:22:56;;;;;;;1.38;1.27;;;24.40;58.20;;;;;;4998356;28;20041;-79
2022/06/18 06:25:22;;;;;;;2.03;1.48;;;24.70;62.20;;;;;;5001403;28;20041;-79
2022/06/18 06:27:48;;;;;;;1.60;1.50;;;25.00;58.10;;;;;;5026503;28;20042;-79
2022/06/18 06:30:16;;;;;;;1.40;1.30;;;25.30;58.80;;;;;;5010838;28;20029;-79
2022/06/18 06:32:43;;;;;;;1.55;1.45;;;25.60;61.50;;;;;;5016862;28;20022;-79
2022/06/18 06:35:09;;;;;;;1.60;1.50;;;25.50;57.20;;;;;;5004517;28;20049;-79
2022/06/18 06:37:35;;;;;;;4.45;1.42;;;25.70;56.30;;;;;;5009753;28;20030;-79
2022/06/18 06:40:02;;;;;;;3.08;1.50;;;25.90;56.40;;;;;;5001470;28;20038;-79
2022/06/18 06:42:28;;;;;;;1.20;1.20;;;26.10;55.00;;;;;;5024172;28;20034;-79
2022/06/18 06:44:54;;;;;;;1.40;1.30;;;26.20;56.00;;;;;;5016081;28;20377;-78
2022/06/18 06:47:20;;;;;;;1.77;1.40;;;26.30;55.40;;;;;;5003037;28;20332;-79
2022/06/18 06:49:46;;;;;;;1.40;1.30;;;26.60;53.80;;;;;;5010899;28;20036;-79
2022/06/18 06:52:12;;;;;;;1.40;1.30;;;26.80;54.20;;;;;;5010198;28;20094;-79
2022/06/18 06:54:38;;;;;;;1.75;1.23;;;27.00;54.00;;;;;;4998639;28;20056;-78
2022/06/18 06:57:22;;;;;;;1.60;1.50;;;27.40;55.40;;;;;;5010898;28;20034;-79
2022/06/18 06:59:48;;;;;;;1.30;1.20;;;27.80;54.50;;;;;;5002119;28;20532;-79
2022/06/18 07:02:18;;;;;;;3.08;1.27;;;28.40;52.70;;;;;;4980736;28;20039;-79
2022/06/18 07:04:44;;;;;;;2.15;1.30;;;28.70;51.70;;;;;;5002064;28;20027;-79
2022/06/18 07:07:15;;;;;;;1.20;1.20;;;28.70;49.80;;;;;;5014741;28;20026;-79
2022/06/18 07:09:41;;;;;;;1.67;1.58;;;28.20;49.70;;;;;;5000435;28;20025;-79
2022/06/18 07:12:08;;;;;;;1.38;1.27;;;28.30;51.80;;;;;;5013139;28;20559;-79
2022/06/18 07:14:36;;;;;;;2.85;1.48;;;28.50;54.90;;;;;;4995014;28;20035;-79
2022/06/18 07:17:02;;;;;;;1.55;1.15;;;28.90;50.20;;;;;;5021734;28;20034;-79
2022/06/18 07:19:28;;;;;;;1.67;1.20;;;29.40;53.20;;;;;;5015264;28;20950;-79
2022/06/18 07:21:54;;;;;;;2.78;1.15;;;29.50;49.60;;;;;;5014610;28;20039;-78
2022/06/18 07:24:20;;;;;;;1.60;1.40;;;29.90;50.40;;;;;;5010831;28;20030;-78
2022/06/18 07:26:47;;;;;;;0.80;0.80;;;30.30;49.60;;;;;;5018427;28;20030;-79
2022/06/18 07:29:13;;;;;;;1.10;1.00;;;30.40;51.50;;;;;;5007440;28;20550;-79
2022/06/18 07:31:39;;;;;;;1.70;1.10;;;30.60;50.00;;;;;;5016514;28;20034;-79
2022/06/18 07:34:06;;;;;;;1.10;1.10;;;30.70;44.30;;;;;;5009558;28;20041;-79
2022/06/18 07:36:33;;;;;;;1.15;1.00;;;30.90;46.30;;;;;;5006253;28;20053;-78
2022/06/18 07:39:00;;;;;;;1.00;1.00;;;30.80;48.40;;;;;;5012824;28;20050;-79
2022/06/18 07:41:34;;;;;;;2.15;1.33;;;31.10;46.70;;;;;;4998651;28;20037;-79
2022/06/18 07:44:00;;;;;;;1.30;1.20;;;31.30;43.10;;;;;;5008129;28;20041;-80
2022/06/18 07:46:26;;;;;;;1.23;1.13;;;31.10;47.60;;;;;;5022137;28;20049;-79
2022/06/18 07:48:52;;;;;;;1.75;1.23;;;31.10;48.20;;;;;;5035233;28;20037;-79
2022/06/18 07:51:18;;;;;;;1.85;1.30;;;31.20;48.50;;;;;;5017451;28;20044;-79
2022/06/18 07:53:44;;;;;;;0.93;0.90;;;31.60;46.40;;;;;;4999844;28;20030;-79
2022/06/18 07:56:14;;;;;;;1.30;1.20;;;31.80;46.60;;;;;;5023004;28;20033;-79
2022/06/18 07:58:39;;;;;;;1.13;1.10;;;32.00;45.00;;;;;;5014320;28;20113;-79
2022/06/18 08:01:05;;;;;;;1.25;1.10;;;32.20;44.00;;;;;;4993828;28;20076;-79
2022/06/18 08:03:31;;;;;;;1.50;1.15;;;32.10;44.20;;;;;;5014867;28;20121;-79
2022/06/18 08:05:57;;;;;;;1.10;1.00;;;32.30;43.40;;;;;;5013647;28;20037;-78
2022/06/18 08:08:23;;;;;;;1.98;1.50;;;32.10;46.00;;;;;;5031808;28;20101;-79
2022/06/18 08:10:52;;;;;;;1.67;1.23;;;31.60;40.80;;;;;;5023324;28;20113;-79
2022/06/18 08:13:18;;;;;;;1.80;1.05;;;31.50;42.80;;;;;;5006303;28;20077;-78
2022/06/18 08:15:45;;;;;;;0.80;0.80;;;31.50;43.90;;;;;;5016095;28;20022;-79
2022/06/18 08:18:11;;;;;;;4.57;0.93;;;31.40;43.40;;;;;;5017944;28;20113;-79
2022/06/18 08:20:38;;;;;;;1.00;1.00;;;31.20;44.00;;;;;;5039417;28;20050;-79
2022/06/18 08:23:06;;;;;;;1.13;0.95;;;31.00;45.50;;;;;;5001708;28;20040;-78
2022/06/18 08:25:35;;;;;;;1.83;1.00;;;30.80;44.10;;;;;;5004460;28;20041;-78
2022/06/18 08:28:04;;;;;;;1.58;0.98;;;30.70;42.10;;;;;;5001954;28;20051;-78
2022/06/18 08:30:31;;;;;;;2.35;1.27;;;30.60;46.30;;;;;;5021380;28;20026;-79
2022/06/18 08:32:56;;;;;;;1.00;0.88;;;30.60;45.10;;;;;;5017603;28;20080;-78
2022/06/18 08:35:22;;;;;;;0.90;0.80;;;30.50;45.10;;;;;;5004166;28;20518;-79
2022/06/18 08:37:49;;;;;;;1.25;0.85;;;30.50;43.60;;;;;;5017793;28;20362;-79
2022/06/18 08:40:37;;;;;;;0.98;0.88;;;30.10;39.20;;;;;;5004191;28;20124;-79
2022/06/18 08:43:41;;;;;;;0.90;0.90;;;30.00;43.90;;;;;;5003902;28;20034;-79
2022/06/18 08:46:43;;;;;;;0.80;0.80;;;29.70;39.40;;;;;;5004497;28;20044;-79
2022/06/18 08:49:17;;;;;;;1.00;0.75;;;29.60;42.00;;;;;;5014278;28;20037;-78
2022/06/18 08:52:01;;;;;;;0.90;0.90;;;29.60;42.60;;;;;;5009328;28;20030;-78
2022/06/18 08:54:30;;;;;;;0.90;0.90;;;29.50;43.70;;;;;;5013722;28;20021;-78
2022/06/18 08:57:25;;;;;;;0.90;0.80;;;29.80;43.10;;;;;;5020109;28;20037;-78
2022/06/18 09:00:03;;;;;;;1.02;0.77;;;30.10;46.80;;;;;;5043642;28;20034;-79
2022/06/18 09:02:37;;;;;;;0.82;0.80;;;30.50;44.00;;;;;;5037353;28;20080;-78
2022/06/18 09:05:31;;;;;;;0.85;0.85;;;30.70;44.00;;;;;;5037077;28;20022;-78
2022/06/18 09:08:26;;;;;;;2.42;1.10;;;31.00;43.90;;;;;;5015380;28;20088;-79
2022/06/18 09:11:01;;;;;;;0.57;0.57;;;31.30;41.80;;;;;;5010719;28;20109;-78
2022/06/18 09:13:57;;;;;;;5.20;1.00;;;31.40;41.10;;;;;;5005539;28;20034;-79
2022/06/18 09:16:33;;;;;;;1.30;0.70;;;31.10;41.40;;;;;;5012371;28;20437;-78
2022/06/18 09:19:03;;;;;;;1.52;1.00;;;31.00;42.00;;;;;;4998228;28;20034;-80
2022/06/18 09:21:44;;;;;;;1.08;0.98;;;30.90;41.50;;;;;;5008797;28;20126;-81
2022/06/18 09:24:16;;;;;;;1.38;1.27;;;30.80;43.60;;;;;;5010609;28;20045;-80
2022/06/18 09:26:50;;;;;;;0.77;0.77;;;30.70;44.40;;;;;;4985577;28;20034;-79
2022/06/18 09:29:44;;;;;;;0.98;0.98;;;30.70;42.70;;;;;;4991346;28;20033;-80
2022/06/18 09:32:37;;;;;;;1.00;1.00;;;30.60;41.20;;;;;;5014974;28;20401;-77
2022/06/18 09:35:15;;;;;;;1.42;1.27;;;30.40;43.70;;;;;;5002008;28;20104;-78
2022/06/18 09:38:02;;;;;;;0.82;0.82;;;30.30;46.20;;;;;;5006262;28;20122;-80
2022/06/18 09:40:33;;;;;;;1.65;0.88;;;30.20;43.60;;;;;;5008274;28;20122;-80
2022/06/18 09:43:20;;;;;;;1.33;0.80;;;30.20;44.30;;;;;;5007952;28;20034;-80
2022/06/18 09:45:50;;;;;;;2.47;1.02;;;30.20;41.50;;;;;;5007380;28;20033;-79
2022/06/18 09:48:16;;;;;;;0.90;0.90;;;30.20;44.00;;;;;;5004530;28;20049;-79
2022/06/18 09:50:53;;;;;;;1.10;1.00;;;30.20;43.40;;;;;;4999701;28;20021;-79
2022/06/18 09:53:30;;;;;;;1.10;0.98;;;30.20;42.60;;;;;;5015906;28;20123;-78
2022/06/18 09:56:07;;;;;;;1.20;1.02;;;30.20;44.20;;;;;;5020985;28;20022;-78
2022/06/18 09:58:58;;;;;;;0.80;0.80;;;30.40;44.10;;;;;;5037062;28;20386;-79
2022/06/18 10:01:42;;;;;;;1.92;1.13;;;30.40;40.40;;;;;;5009805;28;20049;-78
2022/06/18 10:07:00;;;;;;;1.92;0.93;;;30.50;44.70;;;;;;5024582;28;20515;-78
2022/06/18 10:09:43;;;;;;;1.25;1.13;;;30.50;43.30;;;;;;5013752;28;20069;-78
2022/06/18 10:12:27;;;;;;;2.25;1.70;;;30.40;43.30;;;;;;5004940;28;20038;-77
2022/06/18 10:14:56;;;;;;;1.05;1.05;;;30.20;42.40;;;;;;5000794;28;20030;-79
2022/06/18 10:17:36;;;;;;;1.30;1.20;;;30.20;42.20;;;;;;5009478;28;20109;-79
2022/06/18 10:20:11;;;;;;;3.17;1.25;;;30.10;43.00;;;;;;5010968;28;20044;-79
2022/06/18 10:22:49;;;;;;;1.13;1.02;;;30.20;43.00;;;;;;4998108;28;20036;-79
2022/06/18 10:25:42;;;;;;;1.98;1.10;;;30.10;43.10;;;;;;5001409;28;20068;-81
2022/06/18 10:28:35;;;;;;;2.83;1.30;;;30.10;43.30;;;;;;4976508;28;20061;-80
2022/06/18 10:31:12;;;;;;;2.83;1.10;;;30.10;42.60;;;;;;5004696;28;20038;-80
2022/06/18 10:33:50;;;;;;;1.30;1.20;;;30.00;42.50;;;;;;5004883;28;20481;-80
2022/06/18 10:36:21;;;;;;;2.47;1.08;;;30.10;43.80;;;;;;5004937;28;20022;-79
2022/06/18 10:39:17;;;;;;;2.15;1.02;;;30.10;44.90;;;;;;5010772;28;20527;-79
2022/06/18 10:41:49;;;;;;;1.05;0.98;;;30.20;45.00;;;;;;4999609;28;20546;-80
2022/06/18 10:44:32;;;;;;;2.15;1.65;;;30.20;43.90;;;;;;5015772;28;20026;-80
2022/06/18 10:47:06;;;;;;;1.77;1.55;;;30.30;45.20;;;;;;5017803;28;20034;-79
2022/06/18 10:49:32;;;;;;;0.90;0.90;;;30.30;42.90;;;;;;5006193;28;20034;-79
2022/06/18 10:51:59;;;;;;;1.73;0.90;;;30.40;43.70;;;;;;4989848;28;20111;-78
2022/06/18 10:54:36;;;;;;;1.98;1.50;;;30.50;44.50;;;;;;5012963;28;20659;-78
2022/06/18 10:57:04;;;;;;;25.83;14.63;;;30.40;41.80;;;;;;5008675;28;20035;-77
2022/06/18 10:59:37;;;;;;;4.00;2.25;;;30.40;43.60;;;;;;4993462;28;20035;-79
2022/06/18 11:02:09;;;;;;;3.03;1.40;;;30.40;43.80;;;;;;5009269;28;20045;-79
2022/06/18 11:04:35;;;;;;;3.28;1.33;;;30.50;44.50;;;;;;5014602;28;20088;-78
2022/06/18 11:07:09;;;;;;;2.08;1.00;;;30.50;46.60;;;;;;5022034;28;20030;-79
2022/06/18 11:09:51;;;;;;;3.33;1.23;;;30.60;42.40;;;;;;5006093;28;20085;-78
2022/06/18 11:12:22;;;;;;;7.03;1.67;;;30.70;43.90;;;;;;5015451;28;20038;-78
2022/06/18 11:14:48;;;;;;;1.98;1.40;;;30.80;42.60;;;;;;5002782;28;20038;-79
2022/06/18 11:17:43;;;;;;;1.67;1.52;;;30.60;41.00;;;;;;5019229;28;20037;-79
2022/06/18 11:20:30;;;;;;;3.38;1.40;;;30.70;43.90;;;;;;5008378;28;20452;-78
2022/06/18 11:23:03;;;;;;;1.30;1.20;;;30.60;43.10;;;;;;4992655;28;20038;-79
2022/06/18 11:25:28;;;;;;;1.60;1.05;;;30.60;41.10;;;;;;4973038;28;20088;-78
2022/06/18 11:27:59;;;;;;;3.50;1.60;;;30.70;42.30;;;;;;5004239;28;20548;-78
2022/06/18 11:30:33;;;;;;;6.47;2.08;;;30.80;44.00;;;;;;5007964;28;20088;-78
2022/06/18 11:33:01;;;;;;;4.35;1.50;;;31.00;40.20;;;;;;5007376;28;20034;-78
2022/06/18 11:35:37;;;;;;;5.13;1.50;;;31.10;42.10;;;;;;5006833;28;20030;-78
2022/06/18 11:38:25;;;;;;;3.80;1.25;;;31.20;44.10;;;;;;5000146;28;20470;-79
2022/06/18 11:40:56;;;;;;;3.42;1.58;;;31.30;43.50;;;;;;5012625;28;20034;-78
2022/06/18 11:43:33;;;;;;;1.70;1.60;;;31.40;43.40;;;;;;5007908;28;20038;-78
2022/06/18 11:46:08;;;;;;;3.88;1.50;;;31.40;40.30;;;;;;5018563;28;20034;-79
2022/06/18 11:48:59;;;;;;;3.33;1.20;;;31.40;40.20;;;;;;5007693;28;20038;-78
2022/06/18 11:51:44;;;;;;;7.15;1.40;;;31.50;41.30;;;;;;5011937;28;20192;-79
2022/06/18 11:54:22;;;;;;;1.33;1.20;;;31.70;40.30;;;;;;5023015;28;20559;-79
2022/06/18 11:57:04;;;;;;;6.45;1.73;;;31.70;40.40;;;;;;5009088;28;20044;-79
2022/06/18 11:59:52;;;;;;;2.60;1.50;;;31.80;40.90;;;;;;5002717;28;20513;-79
2022/06/18 12:02:23;;;;;;;8.70;1.83;;;31.90;42.50;;;;;;5007297;28;20508;-79
2022/06/18 12:04:58;;;;;;;4.15;1.33;;;32.00;41.70;;;;;;5003920;28;20667;-78
2022/06/18 12:07:28;;;;;;;3.00;1.80;;;32.20;41.80;;;;;;5010942;28;20358;-78
2022/06/18 12:09:55;;;;;;;4.00;1.13;;;32.10;40.70;;;;;;5015381;28;20038;-79
2022/06/18 12:12:57;;;;;;;3.75;1.33;;;32.20;40.50;;;;;;5012098;28;20030;-79
2022/06/18 12:15:33;;;;;;;4.00;1.40;;;32.30;41.00;;;;;;5009448;28;20031;-80
2022/06/18 12:18:21;;;;;;;3.60;1.30;;;32.50;41.10;;;;;;5030491;28;20458;-80
2022/06/18 12:20:58;;;;;;;3.17;1.20;;;32.70;40.90;;;;;;5014217;28;20069;-80
2022/06/18 12:23:58;;;;;;;3.72;1.20;;;32.80;41.10;;;;;;5011656;28;20044;-79
2022/06/18 12:26:32;;;;;;;7.65;1.48;;;33.10;40.90;;;;;;5016401;28;20037;-79
2022/06/18 12:29:29;;;;;;;4.40;1.30;;;33.20;39.40;;;;;;5008810;28;20033;-79
2022/06/18 12:31:59;;;;;;;2.67;1.30;;;33.40;40.10;;;;;;5017240;28;20109;-79
2022/06/18 12:35:18;;;;;;;10.50;3.80;;;33.70;40.60;;;;;;4999763;28;20042;-78
2022/06/18 12:37:49;;;;;;;6.88;2.60;;;34.10;38.30;;;;;;4973076;28;20040;-79
2022/06/18 12:40:33;;;;;;;5.13;1.70;;;34.40;38.90;;;;;;4996880;28;20076;-78
2022/06/18 12:43:30;;;;;;;6.00;1.73;;;34.60;38.10;;;;;;5009764;28;20045;-78
2022/06/18 12:46:15;;;;;;;9.88;1.83;;;34.80;35.80;;;;;;5004284;28;20034;-80
2022/06/18 12:49:01;;;;;;;;;;;34.40;35.10;;;;;;5004864;28;20048;-80
2022/06/18 12:51:32;;;;;;;11.35;1.70;;;34.40;36.10;;;;;;4997646;28;19913;-79
2022/06/18 12:54:40;;;;;;;3.80;1.48;;;34.40;39.10;;;;;;5010651;28;20397;-80
2022/06/18 12:57:33;;;;;;;4.07;1.67;;;34.50;37.20;;;;;;5009593;28;20035;-80
2022/06/18 13:00:18;;;;;;;5.28;1.60;;;34.80;37.10;;;;;;5037955;28;20559;-79
2022/06/18 13:03:13;;;;;;;5.38;1.50;;;34.90;34.80;;;;;;5006453;28;20511;-79
2022/06/18 13:05:52;;;;;;;6.32;1.60;;;35.10;36.50;;;;;;5006351;28;20077;-80
2022/06/18 13:08:41;;;;;;;20.48;11.27;;;35.20;36.90;;;;;;5040199;28;20035;-79
2022/06/18 13:11:28;;;;;;;5.70;3.97;;;35.30;36.60;;;;;;4991079;28;20030;-80
2022/06/18 13:14:13;;;;;;;4.32;1.67;;;35.40;37.70;;;;;;5000979;28;20026;-80
2022/06/18 13:16:58;;;;;;;5.38;1.92;;;35.40;36.20;;;;;;4997138;28;20401;-78
2022/06/18 13:19:28;;;;;;;7.82;3.03;;;35.30;33.90;;;;;;5002286;28;20030;-79
2022/06/18 13:21:54;;;;;;;5.47;1.80;;;35.30;36.30;;;;;;5007813;28;20392;-80
2022/06/18 13:30:14;;;;;;;;;;;35.50;36.80;;;;;;5012990;28;20041;-80
2022/06/18 13:32:43;;;;;;;4.57;1.98;;;35.20;34.10;;;;;;5015845;28;19944;-79
2022/06/18 13:35:16;;;;;;;4.90;1.58;;;35.10;35.70;;;;;;5012048;28;20072;-80